Time;durP1;ratioP1;P1;durP2;ratioP2;P2;SDS_P1;SDS_P2;PMS_P1;PMS_P2;Temp;Humidity;BMP_temperature;BMP_pressure;BME280_temperature;BME280_humidity;BME280_pressure;Samples;Min_cycle;Max_cycle;Signal;HPM_P1;HPM_P2
2022/08/18 00:01:21;;;;;;;17.43;14.27;;;;;;;;;;749119;186;620087;-64
2022/08/18 00:03:47;;;;;;;19.43;15.37;;;;;;;;;;751473;186;635427;-59
2022/08/18 00:06:13;;;;;;;20.63;14.53;;;;;;;;;;757510;186;618541;-64
2022/08/18 00:08:39;;;;;;;21.93;16.30;;;;;;;;;;753194;186;625400;-59
2022/08/18 00:11:05;;;;;;;19.07;15.10;;;;;;;;;;755722;186;632138;-59
2022/08/18 00:13:31;;;;;;;23.50;16.50;;;;;;;;;;750518;186;625406;-65
2022/08/18 00:15:56;;;;;;;21.70;18.37;;;;;;;;;;758022;186;616963;-59
2022/08/18 00:18:22;;;;;;;22.20;17.00;;;;;;;;;;752662;186;629520;-64
2022/08/18 00:20:49;;;;;;;20.43;17.20;;;;;;;;;;742818;190;632394;-59
2022/08/18 00:23:15;;;;;;;20.73;17.40;;;;;;;;;;747703;186;637386;-65
2022/08/18 00:25:41;;;;;;;24.50;19.07;;;;;;;;;;746255;186;624412;-65
2022/08/18 00:28:07;;;;;;;18.50;15.60;;;;;;;;;;754860;186;620221;-65
2022/08/18 00:30:33;;;;;;;26.23;18.67;;;;;;;;;;757824;186;619379;-59
2022/08/18 00:32:58;;;;;;;21.03;16.80;;;;;;;;;;745783;187;623644;-65
2022/08/18 00:35:25;;;;;;;21.13;18.63;;;;;;;;;;744873;187;636355;-59
2022/08/18 00:37:51;;;;;;;23.67;18.67;;;;;;;;;;751321;186;628526;-66
2022/08/18 00:40:17;;;;;;;22.50;17.43;;;;;;;;;;746527;187;624022;-64
2022/08/18 00:42:43;;;;;;;23.37;17.87;;;;;;;;;;752231;186;629364;-64
2022/08/18 00:45:09;;;;;;;30.43;19.40;;;;;;;;;;753896;183;634407;-59
2022/08/18 00:47:35;;;;;;;22.93;18.40;;;;;;;;;;756328;187;616416;-64
2022/08/18 00:50:01;;;;;;;26.23;16.30;;;;;;;;;;746107;186;629240;-64
2022/08/18 00:52:27;;;;;;;17.27;15.40;;;;;;;;;;746876;187;627078;-59
2022/08/18 00:54:54;;;;;;;21.63;16.93;;;;;;;;;;749267;186;619775;-59
2022/08/18 00:57:20;;;;;;;22.50;18.83;;;;;;;;;;735603;188;624294;-64
2022/08/18 00:59:45;;;;;;;27.73;18.10;;;;;;;;;;746253;187;627185;-63
2022/08/18 01:02:11;;;;;;;22.77;18.17;;;;;;;;;;745147;187;620270;-60
2022/08/18 01:04:38;;;;;;;19.40;17.33;;;;;;;;;;748558;187;642222;-64
2022/08/18 01:07:04;;;;;;;23.90;18.00;;;;;;;;;;749672;187;629935;-60
2022/08/18 01:09:30;;;;;;;23.30;17.77;;;;;;;;;;748534;186;620348;-65
2022/08/18 01:11:56;;;;;;;22.27;17.47;;;;;;;;;;758825;186;622849;-64
2022/08/18 01:14:21;;;;;;;25.20;17.47;;;;;;;;;;754098;186;634139;-65
2022/08/18 01:21:50;;;;;;;16.57;14.87;;;;;;;;;;752522;186;616936;-65
2022/08/18 01:24:17;;;;;;;16.93;15.13;;;;;;;;;;752151;186;624280;-65
2022/08/18 01:26:48;;;;;;;18.70;15.03;;;;;;;;;;750228;186;638093;-66
2022/08/18 01:29:10;;;;;;;19.20;16.47;;;;;;;;;;752655;186;630319;-60
2022/08/18 01:31:36;;;;;;;21.00;16.40;;;;;;;;;;741165;190;632468;-59
2022/08/18 01:34:01;;;;;;;19.87;17.50;;;;;;;;;;746149;186;636474;-59
2022/08/18 01:36:26;;;;;;;22.33;16.50;;;;;;;;;;743356;188;651361;-65
2022/08/18 01:38:52;;;;;;;20.90;16.77;;;;;;;;;;750924;187;618572;-66
2022/08/18 01:41:18;;;;;;;24.50;16.57;;;;;;;;;;749046;186;624820;-60
2022/08/18 01:43:45;;;;;;;18.17;16.00;;;;;;;;;;747157;186;627977;-60
2022/08/18 01:46:10;;;;;;;21.60;16.30;;;;;;;;;;754719;186;625230;-65
2022/08/18 01:48:36;;;;;;;18.83;16.80;;;;;;;;;;742449;187;632886;-65
2022/08/18 01:51:02;;;;;;;26.00;16.20;;;;;;;;;;749662;186;629922;-64
2022/08/18 01:53:28;;;;;;;20.30;17.07;;;;;;;;;;745054;187;627164;-64
2022/08/18 01:55:54;;;;;;;21.97;15.67;;;;;;;;;;753100;187;628226;-59
2022/08/18 01:58:23;;;;;;;19.57;16.50;;;;;;;;;;743968;186;632804;-59
2022/08/18 02:00:46;;;;;;;20.33;16.10;;;;;;;;;;754459;183;627530;-64
2022/08/18 02:03:12;;;;;;;21.90;15.67;;;;;;;;;;755510;187;648430;-64
2022/08/18 02:05:38;;;;;;;20.30;17.97;;;;;;;;;;755281;186;636336;-64
2022/08/18 02:08:03;;;;;;;22.60;17.80;;;;;;;;;;749537;186;615802;-64
2022/08/18 02:10:29;;;;;;;21.30;17.40;;;;;;;;;;750203;186;662860;-59
2022/08/18 02:12:55;;;;;;;21.53;17.70;;;;;;;;;;744980;187;632950;-64
2022/08/18 02:15:21;;;;;;;25.77;20.23;;;;;;;;;;747459;187;630182;-59
2022/08/18 02:17:47;;;;;;;27.77;23.37;;;;;;;;;;753853;186;619286;-64
2022/08/18 02:20:13;;;;;;;24.23;20.67;;;;;;;;;;750723;187;612487;-59
2022/08/18 02:22:38;;;;;;;27.37;21.77;;;;;;;;;;749376;186;635029;-64
2022/08/18 02:25:05;;;;;;;27.83;20.73;;;;;;;;;;749748;186;623581;-63
2022/08/18 02:27:31;;;;;;;28.40;20.67;;;;;;;;;;747303;186;617621;-59
2022/08/18 02:29:56;;;;;;;28.57;22.10;;;;;;;;;;749457;186;626009;-59
2022/08/18 02:32:22;;;;;;;28.10;21.17;;;;;;;;;;748122;186;636216;-59
2022/08/18 02:34:48;;;;;;;24.33;19.90;;;;;;;;;;758911;186;617253;-64
2022/08/18 02:37:14;;;;;;;29.00;19.50;;;;;;;;;;749140;186;617988;-60
2022/08/18 02:39:40;;;;;;;27.20;22.00;;;;;;;;;;749976;186;650670;-64
2022/08/18 02:42:06;;;;;;;36.47;22.17;;;;;;;;;;742752;190;624921;-59
2022/08/18 02:44:31;;;;;;;24.10;20.80;;;;;;;;;;752827;186;626740;-59
2022/08/18 02:46:57;;;;;;;27.13;21.60;;;;;;;;;;746628;186;629842;-58
2022/08/18 02:49:24;;;;;;;23.77;21.13;;;;;;;;;;747710;186;632100;-63
2022/08/18 02:51:49;;;;;;;29.87;23.80;;;;;;;;;;756366;186;627703;-58
2022/08/18 02:54:15;;;;;;;30.83;22.60;;;;;;;;;;746870;186;632809;-64
2022/08/18 02:56:44;;;;;;;29.00;23.00;;;;;;;;;;750659;183;657051;-64
2022/08/18 02:59:06;;;;;;;23.77;19.97;;;;;;;;;;756425;186;630749;-59
2022/08/18 03:01:34;;;;;;;27.33;22.00;;;;;;;;;;751627;186;626263;-64
2022/08/18 03:04:00;;;;;;;27.17;22.30;;;;;;;;;;748493;186;620592;-64
2022/08/18 03:06:26;;;;;;;28.40;21.87;;;;;;;;;;749342;187;644908;-58
2022/08/18 03:08:52;;;;;;;24.37;21.00;;;;;;;;;;750919;186;629057;-63
2022/08/18 03:11:17;;;;;;;29.60;21.37;;;;;;;;;;753276;186;634851;-64
2022/08/18 03:13:44;;;;;;;37.47;22.63;;;;;;;;;;751309;186;626450;-59
2022/08/18 03:16:09;;;;;;;25.40;21.73;;;;;;;;;;746438;186;629617;-58
2022/08/18 03:18:35;;;;;;;29.17;22.70;;;;;;;;;;751148;186;629460;-63
2022/08/18 03:21:04;;;;;;;36.73;23.80;;;;;;;;;;748080;187;633707;-64
2022/08/18 03:23:30;;;;;;;29.27;20.10;;;;;;;;;;752505;186;625891;-63
2022/08/18 03:25:56;;;;;;;33.73;24.60;;;;;;;;;;748061;186;633160;-59
2022/08/18 03:28:22;;;;;;;29.03;23.40;;;;;;;;;;748984;186;631105;-58
2022/08/18 03:30:48;;;;;;;30.33;21.40;;;;;;;;;;754792;186;614161;-58
2022/08/18 03:33:14;;;;;;;30.23;21.87;;;;;;;;;;752167;185;630519;-58
2022/08/18 03:35:40;;;;;;;27.20;22.10;;;;;;;;;;746341;186;624749;-58
2022/08/18 03:38:05;;;;;;;28.57;22.50;;;;;;;;;;752660;186;626235;-59
2022/08/18 03:40:31;;;;;;;29.20;22.63;;;;;;;;;;755575;186;618376;-58
2022/08/18 03:42:57;;;;;;;26.40;20.93;;;;;;;;;;750598;186;618687;-63
2022/08/18 03:45:26;;;;;;;26.87;21.37;;;;;;;;;;749698;186;628929;-59
2022/08/18 03:47:51;;;;;;;27.33;22.00;;;;;;;;;;757859;186;617610;-58
2022/08/18 03:50:15;;;;;;;26.00;22.20;;;;;;;;;;753232;186;617555;-58
2022/08/18 03:52:40;;;;;;;28.60;23.23;;;;;;;;;;749137;186;635784;-63
2022/08/18 03:55:07;;;;;;;27.17;22.17;;;;;;;;;;753270;186;619219;-63
2022/08/18 03:57:32;;;;;;;39.30;23.50;;;;;;;;;;750673;186;623782;-63
2022/08/18 03:59:59;;;;;;;39.30;23.43;;;;;;;;;;748391;186;629521;-58
2022/08/18 04:02:24;;;;;;;24.73;21.97;;;;;;;;;;747914;186;629053;-59
2022/08/18 04:04:50;;;;;;;30.60;24.60;;;;;;;;;;743161;187;619598;-65
2022/08/18 04:07:16;;;;;;;28.37;23.40;;;;;;;;;;751232;186;618742;-63
2022/08/18 04:09:42;;;;;;;30.43;23.10;;;;;;;;;;741905;187;626864;-64
2022/08/18 04:12:10;;;;;;;28.50;23.30;;;;;;;;;;754171;186;632621;-59
2022/08/18 04:14:33;;;;;;;26.70;22.77;;;;;;;;;;752501;186;660952;-63
2022/08/18 04:16:59;;;;;;;30.03;23.40;;;;;;;;;;746376;187;634299;-58
2022/08/18 04:19:25;;;;;;;31.80;23.37;;;;;;;;;;745149;187;622037;-59
2022/08/18 04:21:51;;;;;;;30.70;23.03;;;;;;;;;;747450;186;628402;-59
2022/08/18 04:24:17;;;;;;;29.10;23.97;;;;;;;;;;749624;185;653520;-59
2022/08/18 04:26:44;;;;;;;30.10;23.00;;;;;;;;;;750029;187;619108;-63
2022/08/18 04:29:09;;;;;;;32.00;22.83;;;;;;;;;;743684;190;618973;-64
2022/08/18 04:31:35;;;;;;;27.13;22.10;;;;;;;;;;740577;187;636587;-63
2022/08/18 04:34:00;;;;;;;33.03;25.03;;;;;;;;;;751196;186;628900;-65
2022/08/18 04:36:26;;;;;;;28.00;23.27;;;;;;;;;;757476;186;616329;-63
2022/08/18 04:38:52;;;;;;;28.30;22.80;;;;;;;;;;752809;186;632250;-58
2022/08/18 04:41:18;;;;;;;29.40;23.93;;;;;;;;;;751393;186;621948;-63
2022/08/18 04:43:44;;;;;;;35.80;23.27;;;;;;;;;;747568;186;617875;-58
2022/08/18 04:46:11;;;;;;;30.77;25.20;;;;;;;;;;748879;186;623163;-64
2022/08/18 04:48:36;;;;;;;28.97;22.47;;;;;;;;;;748520;186;641502;-64
2022/08/18 04:51:02;;;;;;;28.07;23.53;;;;;;;;;;751141;186;618252;-64
2022/08/18 04:56:00;;;;;;;26.57;22.33;;;;;;;;;;749290;186;624395;-59
2022/08/18 04:58:25;;;;;;;26.77;22.77;;;;;;;;;;744241;187;629200;-64
2022/08/18 05:00:55;;;;;;;27.80;23.40;;;;;;;;;;751511;186;620362;-63
2022/08/18 05:03:23;;;;;;;30.03;23.70;;;;;;;;;;749957;186;621752;-59
2022/08/18 05:05:47;;;;;;;30.33;24.30;;;;;;;;;;744843;186;623405;-59
2022/08/18 05:08:13;;;;;;;29.20;24.23;;;;;;;;;;749232;186;616717;-64
2022/08/18 05:10:40;;;;;;;27.30;23.37;;;;;;;;;;745424;187;621066;-64
2022/08/18 05:13:05;;;;;;;28.20;23.10;;;;;;;;;;746158;186;627409;-58
2022/08/18 05:15:30;;;;;;;31.60;23.97;;;;;;;;;;749044;186;622003;-65
2022/08/18 05:17:56;;;;;;;31.17;25.47;;;;;;;;;;757392;186;635511;-59
2022/08/18 05:20:22;;;;;;;30.70;22.73;;;;;;;;;;752115;186;633396;-59
2022/08/18 05:22:48;;;;;;;27.90;22.47;;;;;;;;;;741732;186;622163;-59
2022/08/18 05:25:14;;;;;;;30.33;22.10;;;;;;;;;;753813;186;618039;-58
2022/08/18 05:27:41;;;;;;;26.43;22.53;;;;;;;;;;752087;186;623631;-64
2022/08/18 05:30:06;;;;;;;27.80;22.70;;;;;;;;;;752818;186;629323;-59
2022/08/18 05:32:33;;;;;;;33.70;26.47;;;;;;;;;;749146;186;627424;-59
2022/08/18 05:34:59;;;;;;;24.93;22.37;;;;;;;;;;746648;186;628710;-64
2022/08/18 05:37:24;;;;;;;37.67;21.93;;;;;;;;;;750618;187;626025;-65
2022/08/18 05:39:53;;;;;;;28.43;22.27;;;;;;;;;;747385;186;640694;-64
2022/08/18 05:42:19;;;;;;;28.43;22.20;;;;;;;;;;753541;186;616754;-64
2022/08/18 05:44:45;;;;;;;25.57;22.07;;;;;;;;;;747587;187;628987;-66
2022/08/18 05:47:12;;;;;;;31.63;22.77;;;;;;;;;;753586;186;627234;-60
2022/08/18 05:49:38;;;;;;;25.98;22.67;;;;;;;;;;748977;187;643213;-60
2022/08/18 05:52:05;;;;;;;24.83;21.70;;;;;;;;;;753784;186;627432;-61
2022/08/18 05:57:11;;;;;;;25.90;22.33;;;;;;;;;;756864;185;623853;-59
2022/08/18 05:59:37;;;;;;;23.13;20.70;;;;;;;;;;748439;186;628893;-64
2022/08/18 06:02:03;;;;;;;24.77;20.53;;;;;;;;;;752028;186;619754;-64
2022/08/18 06:04:33;;;;;;;23.90;20.03;;;;;;;;;;745984;186;626710;-59
2022/08/18 06:06:59;;;;;;;28.23;23.77;;;;;;;;;;754374;186;628663;-66
2022/08/18 06:09:25;;;;;;;26.10;22.60;;;;;;;;;;757450;186;624693;-66
2022/08/18 06:11:51;;;;;;;23.63;20.80;;;;;;;;;;752777;186;632492;-66
2022/08/18 06:14:17;;;;;;;25.30;22.30;;;;;;;;;;754058;186;630732;-61
2022/08/18 06:17:00;;;;;;;24.73;21.03;;;;;;;;;;740040;189;620024;-61
2022/08/18 06:19:29;;;;;;;24.27;20.10;;;;;;;;;;753956;186;627333;-61
2022/08/18 06:21:56;;;;;;;22.77;19.73;;;;;;;;;;748933;186;628623;-62
2022/08/18 06:24:26;;;;;;;29.47;21.30;;;;;;;;;;745809;186;618277;-62
2022/08/18 06:26:57;;;;;;;27.60;21.53;;;;;;;;;;750751;186;641325;-62
2022/08/18 06:29:41;;;;;;;22.80;19.53;;;;;;;;;;754327;186;631353;-66
2022/08/18 06:32:06;;;;;;;25.77;21.00;;;;;;;;;;751477;186;627690;-61
2022/08/18 06:34:39;;;;;;;26.80;21.70;;;;;;;;;;752342;186;635831;-62
2022/08/18 06:37:06;;;;;;;25.77;21.90;;;;;;;;;;744282;187;629148;-61
2022/08/18 06:39:35;;;;;;;30.80;23.80;;;;;;;;;;750663;186;631878;-63
2022/08/18 06:42:04;;;;;;;26.97;21.00;;;;;;;;;;745188;187;636726;-67
2022/08/18 06:44:30;;;;;;;31.37;22.33;;;;;;;;;;753775;187;629049;-68
2022/08/18 06:46:55;;;;;;;24.57;18.90;;;;;;;;;;748906;186;626196;-65
2022/08/18 06:49:28;;;;;;;34.47;24.33;;;;;;;;;;748750;186;630452;-63
2022/08/18 06:51:54;;;;;;;25.93;21.30;;;;;;;;;;749032;186;633161;-67
2022/08/18 06:54:28;;;;;;;27.90;21.77;;;;;;;;;;747730;186;627205;-67
2022/08/18 06:56:54;;;;;;;28.20;20.90;;;;;;;;;;744887;188;631041;-68
2022/08/18 06:59:27;;;;;;;30.13;22.20;;;;;;;;;;751293;186;634312;-66
2022/08/18 07:01:56;;;;;;;24.73;21.77;;;;;;;;;;747007;187;634087;-65
2022/08/18 07:04:28;;;;;;;31.30;20.63;;;;;;;;;;756006;186;625183;-67
2022/08/18 07:06:54;;;;;;;27.67;21.67;;;;;;;;;;757117;186;625904;-64
2022/08/18 07:09:20;;;;;;;27.40;21.67;;;;;;;;;;749123;186;622976;-65
2022/08/18 07:11:51;;;;;;;28.60;20.43;;;;;;;;;;749249;186;629242;-64
2022/08/18 07:14:20;;;;;;;26.27;20.80;;;;;;;;;;752618;186;623959;-64
2022/08/18 07:16:45;;;;;;;32.03;22.50;;;;;;;;;;750946;187;620334;-64
2022/08/18 07:19:15;;;;;;;27.03;21.27;;;;;;;;;;753502;186;627011;-68
2022/08/18 07:21:39;;;;;;;29.23;20.27;;;;;;;;;;751309;186;621934;-65
2022/08/18 07:24:11;;;;;;;27.73;20.23;;;;;;;;;;749636;187;617144;-66
2022/08/18 07:26:42;;;;;;;23.67;19.43;;;;;;;;;;752990;186;620106;-64
2022/08/18 07:29:11;;;;;;;25.77;20.20;;;;;;;;;;744177;188;620692;-67
2022/08/18 07:31:41;;;;;;;26.90;20.20;;;;;;;;;;745714;186;625468;-68
2022/08/18 07:34:11;;;;;;;27.07;22.50;;;;;;;;;;758139;186;625301;-68
2022/08/18 07:36:35;;;;;;;25.83;19.80;;;;;;;;;;753848;183;633041;-64
2022/08/18 07:39:02;;;;;;;25.70;19.50;;;;;;;;;;749280;186;628736;-64
2022/08/18 07:41:31;;;;;;;29.77;19.43;;;;;;;;;;745124;186;635805;-68
2022/08/18 07:43:59;;;;;;;23.37;19.37;;;;;;;;;;754375;186;616143;-64
2022/08/18 07:46:27;;;;;;;26.03;20.60;;;;;;;;;;741909;187;636419;-64
2022/08/18 07:48:51;;;;;;;27.00;20.17;;;;;;;;;;748331;187;622083;-65
2022/08/18 07:51:27;;;;;;;21.77;19.47;;;;;;;;;;750431;186;644147;-67
2022/08/18 07:53:56;;;;;;;25.17;17.87;;;;;;;;;;746065;190;626989;-67
2022/08/18 07:56:23;;;;;;;24.80;18.53;;;;;;;;;;750414;187;624957;-65
2022/08/18 07:58:49;;;;;;;22.33;18.77;;;;;;;;;;754126;186;633313;-65
2022/08/18 08:01:31;;;;;;;23.80;19.70;;;;;;;;;;751967;186;631430;-69
2022/08/18 08:04:13;;;;;;;20.60;17.60;;;;;;;;;;744356;186;628014;-69
2022/08/18 08:06:42;;;;;;;24.40;18.07;;;;;;;;;;734462;187;624700;-65
2022/08/18 08:09:22;;;;;;;19.43;16.70;;;;;;;;;;746855;186;633267;-64
2022/08/18 08:11:54;;;;;;;24.40;17.70;;;;;;;;;;753750;186;613703;-68
2022/08/18 08:14:37;;;;;;;20.93;17.40;;;;;;;;;;752411;186;630096;-65
2022/08/18 08:17:02;;;;;;;24.13;17.60;;;;;;;;;;751336;183;618670;-69
2022/08/18 08:19:32;;;;;;;20.40;17.27;;;;;;;;;;749280;186;633574;-69
2022/08/18 08:21:57;;;;;;;23.63;17.30;;;;;;;;;;744425;188;627561;-68
2022/08/18 08:24:25;;;;;;;26.37;18.97;;;;;;;;;;756141;186;636464;-68
2022/08/18 08:27:09;;;;;;;23.30;18.03;;;;;;;;;;746750;186;625306;-68
2022/08/18 08:29:50;;;;;;;20.47;17.40;;;;;;;;;;752281;186;628051;-68
2022/08/18 08:32:16;;;;;;;31.67;17.67;;;;;;;;;;751237;186;653260;-65
2022/08/18 08:34:44;;;;;;;19.10;16.87;;;;;;;;;;744773;186;629881;-65
2022/08/18 08:37:20;;;;;;;22.53;17.60;;;;;;;;;;749904;186;628729;-65
2022/08/18 08:39:46;;;;;;;27.10;18.47;;;;;;;;;;750717;186;631879;-68
2022/08/18 08:42:12;;;;;;;20.67;17.43;;;;;;;;;;742530;187;639027;-68
2022/08/18 08:44:39;;;;;;;21.87;16.90;;;;;;;;;;747735;187;628017;-67
2022/08/18 08:47:04;;;;;;;20.47;17.10;;;;;;;;;;744623;188;624229;-69
2022/08/18 08:49:35;;;;;;;19.90;17.53;;;;;;;;;;751625;187;629499;-65
2022/08/18 08:52:00;;;;;;;19.60;15.67;;;;;;;;;;744973;186;628965;-68
2022/08/18 08:54:26;;;;;;;23.30;17.50;;;;;;;;;;747955;186;620016;-65
2022/08/18 08:56:52;;;;;;;18.57;14.50;;;;;;;;;;745696;186;636116;-65
2022/08/18 08:59:20;;;;;;;26.80;14.97;;;;;;;;;;741863;186;620701;-70
2022/08/18 09:01:44;;;;;;;17.53;15.73;;;;;;;;;;741169;186;629627;-66
2022/08/18 09:04:20;;;;;;;16.67;14.17;;;;;;;;;;751898;186;618382;-69
2022/08/18 09:06:49;;;;;;;16.57;14.77;;;;;;;;;;742358;190;629068;-65
2022/08/18 09:09:18;;;;;;;18.47;15.50;;;;;;;;;;746690;187;626999;-64
2022/08/18 09:11:47;;;;;;;20.40;16.10;;;;;;;;;;747800;186;622495;-68
2022/08/18 09:14:11;;;;;;;18.80;15.93;;;;;;;;;;750927;187;622574;-68
2022/08/18 09:16:58;;;;;;;15.40;13.67;;;;;;;;;;747366;186;625837;-70
2022/08/18 09:19:36;;;;;;;16.77;14.97;;;;;;;;;;755787;186;630317;-64
2022/08/18 09:22:03;;;;;;;16.07;14.37;;;;;;;;;;748956;187;634040;-65
2022/08/18 09:24:29;;;;;;;16.90;15.23;;;;;;;;;;752407;186;625101;-68
2022/08/18 09:27:01;;;;;;;17.83;14.03;;;;;;;;;;750633;186;627491;-68
2022/08/18 09:29:32;;;;;;;16.13;14.30;;;;;;;;;;754740;184;615758;-66
2022/08/18 09:32:04;;;;;;;14.67;13.03;;;;;;;;;;753023;186;629080;-64
2022/08/18 09:34:34;;;;;;;18.63;13.83;;;;;;;;;;752568;186;619158;-69
2022/08/18 09:37:00;;;;;;;15.70;12.57;;;;;;;;;;755431;186;623672;-68
2022/08/18 09:42:03;;;;;;;14.60;12.73;;;;;;;;;;751434;186;619305;-65
2022/08/18 09:44:45;;;;;;;21.00;13.10;;;;;;;;;;753387;186;625597;-70
2022/08/18 09:47:12;;;;;;;16.30;11.10;;;;;;;;;;742464;190;627992;-70
2022/08/18 09:49:39;;;;;;;16.60;11.70;;;;;;;;;;750991;186;619056;-68
2022/08/18 09:52:11;;;;;;;15.50;12.25;;;;;;;;;;744310;187;625185;-67
2022/08/18 09:54:36;;;;;;;15.13;12.00;;;;;;;;;;747546;187;616132;-65
2022/08/18 09:57:04;;;;;;;12.53;11.23;;;;;;;;;;748400;187;625473;-68
2022/08/18 09:59:47;;;;;;;15.63;9.97;;;;;;;;;;741663;188;623126;-68
2022/08/18 10:02:22;;;;;;;29.77;13.90;;;;;;;;;;751708;186;633545;-64
2022/08/18 10:04:49;;;;;;;13.90;11.10;;;;;;;;;;745638;187;631537;-67
2022/08/18 10:07:13;;;;;;;13.13;11.17;;;;;;;;;;751897;186;629225;-65
2022/08/18 10:09:56;;;;;;;15.43;12.70;;;;;;;;;;744103;187;622198;-69
2022/08/18 10:12:22;;;;;;;12.73;10.60;;;;;;;;;;747013;187;637700;-64
2022/08/18 10:14:53;;;;;;;15.10;11.27;;;;;;;;;;750271;186;634880;-71
2022/08/18 10:17:21;;;;;;;14.20;10.90;;;;;;;;;;748526;186;628449;-66
2022/08/18 10:19:58;;;;;;;14.57;12.33;;;;;;;;;;754570;186;619181;-63
2022/08/18 10:22:30;;;;;;;15.40;11.67;;;;;;;;;;751989;186;629155;-65
2022/08/18 10:24:57;;;;;;;15.33;12.10;;;;;;;;;;742978;187;616809;-64
2022/08/18 10:27:28;;;;;;;12.20;11.00;;;;;;;;;;750090;186;626979;-66
2022/08/18 10:29:53;;;;;;;12.93;11.70;;;;;;;;;;749968;187;626987;-66
2022/08/18 10:32:21;;;;;;;12.23;10.93;;;;;;;;;;752852;186;620486;-69
2022/08/18 10:34:48;;;;;;;13.77;12.27;;;;;;;;;;749901;184;625945;-69
2022/08/18 10:37:33;;;;;;;14.37;11.80;;;;;;;;;;740928;190;628117;-66
2022/08/18 10:40:00;;;;;;;15.93;12.20;;;;;;;;;;747752;187;628343;-69
2022/08/18 10:42:28;;;;;;;14.40;10.60;;;;;;;;;;757669;185;627398;-65
2022/08/18 10:44:54;;;;;;;11.90;10.80;;;;;;;;;;755407;186;622479;-66
2022/08/18 10:47:21;;;;;;;12.33;11.13;;;;;;;;;;754342;186;657680;-68
2022/08/18 10:49:47;;;;;;;11.47;9.87;;;;;;;;;;750728;183;619887;-66
2022/08/18 10:52:13;;;;;;;12.93;10.97;;;;;;;;;;743824;187;615972;-65
2022/08/18 10:54:45;;;;;;;11.77;10.57;;;;;;;;;;746978;187;622128;-65
2022/08/18 10:57:15;;;;;;;12.93;10.97;;;;;;;;;;748173;187;627070;-67
2022/08/18 10:59:44;;;;;;;13.57;11.57;;;;;;;;;;748115;186;636822;-65
2022/08/18 11:02:13;;;;;;;18.77;11.70;;;;;;;;;;746777;190;619960;-64
2022/08/18 11:04:40;;;;;;;18.93;11.63;;;;;;;;;;724187;193;630547;-65
2022/08/18 11:07:06;;;;;;;13.03;10.23;;;;;;;;;;747469;186;627973;-69
2022/08/18 11:09:32;;;;;;;13.20;10.87;;;;;;;;;;750995;186;616906;-64
2022/08/18 11:11:58;;;;;;;11.63;10.53;;;;;;;;;;753738;186;640373;-68
2022/08/18 11:14:38;;;;;;;14.23;10.87;;;;;;;;;;747383;186;629618;-65
2022/08/18 11:17:24;;;;;;;12.83;10.73;;;;;;;;;;747555;186;637326;-64
2022/08/18 11:19:50;;;;;;;11.87;10.60;;;;;;;;;;745599;185;610669;-65
2022/08/18 11:22:19;;;;;;;13.53;10.30;;;;;;;;;;740268;189;626772;-66
2022/08/18 11:24:45;;;;;;;13.00;10.53;;;;;;;;;;750218;187;616703;-70
2022/08/18 11:27:27;;;;;;;13.13;11.30;;;;;;;;;;749883;186;630707;-69
2022/08/18 11:29:53;;;;;;;14.33;10.87;;;;;;;;;;751713;187;628147;-64
2022/08/18 11:32:24;;;;;;;13.70;11.10;;;;;;;;;;746753;187;631033;-65
2022/08/18 11:34:51;;;;;;;14.23;11.60;;;;;;;;;;744316;187;635946;-65
2022/08/18 11:37:20;;;;;;;14.03;11.63;;;;;;;;;;755019;186;618207;-68
2022/08/18 11:39:48;;;;;;;11.70;10.50;;;;;;;;;;749497;183;628821;-64
2022/08/18 11:42:13;;;;;;;11.87;10.67;;;;;;;;;;745380;187;642743;-69
2022/08/18 11:44:39;;;;;;;14.10;11.00;;;;;;;;;;755316;187;610896;-64
2022/08/18 11:47:07;;;;;;;13.83;12.23;;;;;;;;;;750954;186;618937;-69
2022/08/18 11:49:33;;;;;;;14.27;10.20;;;;;;;;;;747643;186;619494;-65
2022/08/18 11:51:59;;;;;;;12.80;10.90;;;;;;;;;;748408;186;629499;-70
2022/08/18 11:54:24;;;;;;;13.70;10.27;;;;;;;;;;745184;186;621876;-68
2022/08/18 11:56:50;;;;;;;12.03;9.73;;;;;;;;;;757590;186;633232;-64
2022/08/18 11:59:22;;;;;;;11.50;10.30;;;;;;;;;;749177;186;639051;-65
2022/08/18 12:01:49;;;;;;;15.33;10.90;;;;;;;;;;750147;186;624188;-65
2022/08/18 12:04:21;;;;;;;12.17;10.23;;;;;;;;;;750110;186;705747;-65
2022/08/18 12:06:53;;;;;;;11.03;10.03;;;;;;;;;;751092;186;622917;-65
2022/08/18 12:09:22;;;;;;;11.13;10.03;;;;;;;;;;748058;186;618736;-65
2022/08/18 12:11:50;;;;;;;13.07;11.10;;;;;;;;;;748465;183;633077;-65
2022/08/18 12:14:16;;;;;;;11.70;10.27;;;;;;;;;;748786;186;622672;-69
2022/08/18 12:16:42;;;;;;;14.20;9.77;;;;;;;;;;750326;186;617775;-69
2022/08/18 12:19:08;;;;;;;17.07;10.30;;;;;;;;;;748205;186;626149;-65
2022/08/18 12:21:36;;;;;;;12.07;10.50;;;;;;;;;;756687;186;620958;-68
2022/08/18 12:24:02;;;;;;;15.23;10.60;;;;;;;;;;747745;186;625254;-64
2022/08/18 12:26:28;;;;;;;13.80;9.80;;;;;;;;;;738980;186;629135;-68
2022/08/18 12:28:54;;;;;;;12.67;9.67;;;;;;;;;;752620;186;637277;-68
2022/08/18 12:31:20;;;;;;;11.60;10.40;;;;;;;;;;741753;189;679737;-65
2022/08/18 12:33:46;;;;;;;13.93;10.10;;;;;;;;;;743609;186;636121;-68
2022/08/18 12:36:11;;;;;;;11.27;9.57;;;;;;;;;;753477;186;615699;-69
2022/08/18 12:38:37;;;;;;;11.73;10.00;;;;;;;;;;755573;186;632920;-70
2022/08/18 12:41:04;;;;;;;13.27;10.33;;;;;;;;;;751666;183;624366;-68
2022/08/18 12:43:30;;;;;;;19.77;11.00;;;;;;;;;;750898;186;644348;-69
2022/08/18 12:45:55;;;;;;;12.20;10.90;;;;;;;;;;754096;187;622490;-65
2022/08/18 12:48:21;;;;;;;12.60;10.93;;;;;;;;;;741556;186;615228;-65
2022/08/18 12:50:47;;;;;;;12.27;10.10;;;;;;;;;;750039;186;634004;-66
2022/08/18 12:53:12;;;;;;;13.83;11.17;;;;;;;;;;751972;186;616973;-65
2022/08/18 12:55:38;;;;;;;10.60;9.50;;;;;;;;;;749954;183;648496;-66
2022/08/18 12:58:04;;;;;;;10.20;9.20;;;;;;;;;;748648;186;631125;-69
2022/08/18 13:00:30;;;;;;;11.80;10.60;;;;;;;;;;749046;183;618634;-68
2022/08/18 13:02:56;;;;;;;12.93;10.63;;;;;;;;;;750932;186;617415;-64
2022/08/18 13:05:22;;;;;;;11.83;10.43;;;;;;;;;;750036;186;626560;-69
2022/08/18 13:07:47;;;;;;;12.33;10.00;;;;;;;;;;750169;186;623583;-65
2022/08/18 13:10:13;;;;;;;13.57;9.90;;;;;;;;;;754022;186;609224;-69
2022/08/18 13:12:39;;;;;;;10.50;9.17;;;;;;;;;;752596;186;631508;-64
2022/08/18 13:15:08;;;;;;;11.47;9.00;;;;;;;;;;752164;186;618815;-68
2022/08/18 13:17:31;;;;;;;12.23;10.87;;;;;;;;;;753102;186;627031;-64
2022/08/18 13:19:57;;;;;;;11.00;9.83;;;;;;;;;;750832;186;616143;-68
2022/08/18 13:22:23;;;;;;;16.23;9.13;;;;;;;;;;749161;186;627648;-67
2022/08/18 13:24:49;;;;;;;24.30;10.63;;;;;;;;;;750355;186;630249;-68
2022/08/18 13:27:15;;;;;;;14.07;10.20;;;;;;;;;;751222;186;628980;-65
2022/08/18 13:29:40;;;;;;;18.30;10.23;;;;;;;;;;749535;186;630506;-64
2022/08/18 13:32:08;;;;;;;11.63;10.43;;;;;;;;;;750588;186;630597;-65
2022/08/18 13:34:32;;;;;;;13.30;10.60;;;;;;;;;;755592;186;629818;-64
2022/08/18 13:36:58;;;;;;;14.07;10.13;;;;;;;;;;751141;186;630055;-67
2022/08/18 13:39:24;;;;;;;14.10;11.27;;;;;;;;;;750751;186;628650;-66
2022/08/18 13:41:50;;;;;;;11.90;10.20;;;;;;;;;;752891;186;625652;-65
2022/08/18 13:44:17;;;;;;;10.97;9.87;;;;;;;;;;747456;186;624465;-68
2022/08/18 13:46:44;;;;;;;13.47;10.70;;;;;;;;;;746523;183;632806;-68
2022/08/18 13:49:10;;;;;;;10.20;8.90;;;;;;;;;;750852;186;624203;-65
2022/08/18 13:51:36;;;;;;;10.63;9.53;;;;;;;;;;756743;186;627222;-67
2022/08/18 13:54:02;;;;;;;17.43;10.57;;;;;;;;;;751195;185;634424;-65
2022/08/18 13:56:27;;;;;;;11.03;9.60;;;;;;;;;;751012;186;631252;-65
2022/08/18 13:58:53;;;;;;;13.77;9.60;;;;;;;;;;751010;186;634946;-65
2022/08/18 14:01:19;;;;;;;13.20;10.87;;;;;;;;;;750750;183;616851;-67
2022/08/18 14:03:45;;;;;;;12.83;9.80;;;;;;;;;;748791;187;620165;-67
2022/08/18 14:06:11;;;;;;;15.20;10.97;;;;;;;;;;753173;186;627992;-67
2022/08/18 14:08:37;;;;;;;14.30;9.20;;;;;;;;;;752847;186;633439;-65
2022/08/18 14:11:03;;;;;;;12.13;10.60;;;;;;;;;;752443;184;635167;-64
2022/08/18 14:13:28;;;;;;;11.50;9.57;;;;;;;;;;748621;187;633648;-64
2022/08/18 14:15:54;;;;;;;13.43;9.47;;;;;;;;;;747320;187;617056;-67
2022/08/18 14:18:20;;;;;;;13.37;9.23;;;;;;;;;;750953;186;634416;-63
2022/08/18 14:28:21;;;;;;;10.00;8.90;;;;;;;;;;751028;186;629917;-67